sensor_id;sensor_type;location;lat;lon;timestamp;P1;durP1;ratioP1;P2;durP2;ratioP2
76115;SDS011;64847;45.778;12.802;2024-02-16T00:01:40;16.43;;;14.93;;
76115;SDS011;64847;45.778;12.802;2024-02-16T00:04:06;16.90;;;15.30;;
76115;SDS011;64847;45.778;12.802;2024-02-16T00:06:32;16.10;;;14.60;;
76115;SDS011;64847;45.778;12.802;2024-02-16T00:08:59;16.43;;;14.87;;
76115;SDS011;64847;45.778;12.802;2024-02-16T00:11:24;16.93;;;15.33;;
76115;SDS011;64847;45.778;12.802;2024-02-16T00:13:50;17.40;;;15.80;;
76115;SDS011;64847;45.778;12.802;2024-02-16T00:16:17;17.83;;;16.13;;
76115;SDS011;64847;45.778;12.802;2024-02-16T00:18:43;17.00;;;15.40;;
76115;SDS011;64847;45.778;12.802;2024-02-16T00:21:08;17.60;;;15.80;;
76115;SDS011;64847;45.778;12.802;2024-02-16T00:23:34;18.07;;;16.27;;
76115;SDS011;64847;45.778;12.802;2024-02-16T00:25:59;18.57;;;16.50;;
76115;SDS011;64847;45.778;12.802;2024-02-16T00:28:26;17.17;;;15.53;;
76115;SDS011;64847;45.778;12.802;2024-02-16T00:30:51;16.43;;;14.83;;
76115;SDS011;64847;45.778;12.802;2024-02-16T00:33:17;15.30;;;13.90;;
76115;SDS011;64847;45.778;12.802;2024-02-16T00:35:43;14.97;;;13.63;;
76115;SDS011;64847;45.778;12.802;2024-02-16T00:38:09;14.87;;;13.57;;
76115;SDS011;64847;45.778;12.802;2024-02-16T00:40:35;16.03;;;14.53;;
76115;SDS011;64847;45.778;12.802;2024-02-16T00:43:00;16.10;;;14.53;;
76115;SDS011;64847;45.778;12.802;2024-02-16T00:45:25;15.60;;;14.23;;
76115;SDS011;64847;45.778;12.802;2024-02-16T00:47:51;15.00;;;13.60;;
76115;SDS011;64847;45.778;12.802;2024-02-16T00:50:18;15.07;;;13.73;;
76115;SDS011;64847;45.778;12.802;2024-02-16T00:52:43;14.53;;;13.13;;
76115;SDS011;64847;45.778;12.802;2024-02-16T00:55:10;14.67;;;13.30;;
76115;SDS011;64847;45.778;12.802;2024-02-16T00:57:35;15.40;;;13.97;;
76115;SDS011;64847;45.778;12.802;2024-02-16T01:00:01;14.17;;;12.87;;
76115;SDS011;64847;45.778;12.802;2024-02-16T01:02:28;14.73;;;13.43;;
76115;SDS011;64847;45.778;12.802;2024-02-16T01:04:54;15.90;;;14.50;;
76115;SDS011;64847;45.778;12.802;2024-02-16T01:07:23;14.13;;;12.93;;
76115;SDS011;64847;45.778;12.802;2024-02-16T01:09:48;16.23;;;14.63;;
76115;SDS011;64847;45.778;12.802;2024-02-16T01:12:13;16.07;;;14.67;;
76115;SDS011;64847;45.778;12.802;2024-02-16T01:14:39;14.93;;;13.63;;
76115;SDS011;64847;45.778;12.802;2024-02-16T01:17:04;15.63;;;14.27;;
76115;SDS011;64847;45.778;12.802;2024-02-16T01:19:30;14.67;;;13.37;;
76115;SDS011;64847;45.778;12.802;2024-02-16T01:21:55;15.70;;;14.30;;
76115;SDS011;64847;45.778;12.802;2024-02-16T01:24:22;14.03;;;12.77;;
76115;SDS011;64847;45.778;12.802;2024-02-16T01:26:48;14.30;;;13.10;;
76115;SDS011;64847;45.778;12.802;2024-02-16T01:29:14;15.70;;;14.00;;
76115;SDS011;64847;45.778;12.802;2024-02-16T01:31:39;16.47;;;14.87;;
76115;SDS011;64847;45.778;12.802;2024-02-16T01:34:04;15.50;;;14.00;;
76115;SDS011;64847;45.778;12.802;2024-02-16T01:36:30;14.40;;;13.10;;
76115;SDS011;64847;45.778;12.802;2024-02-16T01:38:55;15.23;;;13.93;;
76115;SDS011;64847;45.778;12.802;2024-02-16T01:41:21;15.03;;;13.73;;
76115;SDS011;64847;45.778;12.802;2024-02-16T01:43:46;16.00;;;14.50;;
76115;SDS011;64847;45.778;12.802;2024-02-16T01:46:12;14.90;;;13.50;;
76115;SDS011;64847;45.778;12.802;2024-02-16T01:48:37;14.63;;;13.33;;
76115;SDS011;64847;45.778;12.802;2024-02-16T01:51:04;15.17;;;13.77;;
76115;SDS011;64847;45.778;12.802;2024-02-16T01:53:31;14.30;;;13.03;;
76115;SDS011;64847;45.778;12.802;2024-02-16T01:55:57;15.90;;;14.50;;
76115;SDS011;64847;45.778;12.802;2024-02-16T01:58:23;14.97;;;13.67;;
76115;SDS011;64847;45.778;12.802;2024-02-16T02:00:48;13.87;;;12.67;;
76115;SDS011;64847;45.778;12.802;2024-02-16T02:03:14;14.60;;;13.23;;
76115;SDS011;64847;45.778;12.802;2024-02-16T02:05:44;14.03;;;12.73;;
76115;SDS011;64847;45.778;12.802;2024-02-16T02:08:13;14.37;;;13.17;;
76115;SDS011;64847;45.778;12.802;2024-02-16T02:10:39;13.60;;;12.40;;
76115;SDS011;64847;45.778;12.802;2024-02-16T02:13:04;14.03;;;12.87;;
76115;SDS011;64847;45.778;12.802;2024-02-16T02:15:29;13.73;;;12.53;;
76115;SDS011;64847;45.778;12.802;2024-02-16T02:17:55;14.27;;;13.00;;
76115;SDS011;64847;45.778;12.802;2024-02-16T02:20:20;14.30;;;13.07;;
76115;SDS011;64847;45.778;12.802;2024-02-16T02:22:45;14.47;;;13.17;;
76115;SDS011;64847;45.778;12.802;2024-02-16T02:25:11;14.43;;;13.20;;
76115;SDS011;64847;45.778;12.802;2024-02-16T02:27:37;14.83;;;13.47;;
76115;SDS011;64847;45.778;12.802;2024-02-16T02:30:03;14.43;;;13.03;;
76115;SDS011;64847;45.778;12.802;2024-02-16T02:32:30;15.37;;;14.00;;
76115;SDS011;64847;45.778;12.802;2024-02-16T02:34:55;13.40;;;12.30;;
76115;SDS011;64847;45.778;12.802;2024-02-16T02:37:21;14.03;;;12.73;;
76115;SDS011;64847;45.778;12.802;2024-02-16T02:39:46;13.83;;;12.63;;
76115;SDS011;64847;45.778;12.802;2024-02-16T02:42:12;13.90;;;12.70;;
76115;SDS011;64847;45.778;12.802;2024-02-16T02:44:38;14.03;;;12.83;;
76115;SDS011;64847;45.778;12.802;2024-02-16T02:47:03;14.33;;;13.03;;
76115;SDS011;64847;45.778;12.802;2024-02-16T02:49:29;14.20;;;12.97;;
76115;SDS011;64847;45.778;12.802;2024-02-16T02:51:54;14.57;;;13.27;;
76115;SDS011;64847;45.778;12.802;2024-02-16T02:54:20;13.00;;;11.90;;
76115;SDS011;64847;45.778;12.802;2024-02-16T02:56:45;15.13;;;13.83;;
76115;SDS011;64847;45.778;12.802;2024-02-16T02:59:11;14.57;;;13.27;;
76115;SDS011;64847;45.778;12.802;2024-02-16T03:01:36;15.83;;;14.43;;
76115;SDS011;64847;45.778;12.802;2024-02-16T03:04:02;15.23;;;13.93;;
76115;SDS011;64847;45.778;12.802;2024-02-16T03:06:28;14.73;;;13.37;;
76115;SDS011;64847;45.778;12.802;2024-02-16T03:08:53;14.33;;;13.03;;
76115;SDS011;64847;45.778;12.802;2024-02-16T03:11:19;15.17;;;13.77;;
76115;SDS011;64847;45.778;12.802;2024-02-16T03:13:45;15.10;;;13.70;;
76115;SDS011;64847;45.778;12.802;2024-02-16T03:16:11;14.67;;;13.43;;
76115;SDS011;64847;45.778;12.802;2024-02-16T03:18:36;15.13;;;13.83;;
76115;SDS011;64847;45.778;12.802;2024-02-16T03:21:02;14.70;;;13.40;;
76115;SDS011;64847;45.778;12.802;2024-02-16T03:23:27;16.07;;;14.67;;
76115;SDS011;64847;45.778;12.802;2024-02-16T03:25:53;15.03;;;13.70;;
76115;SDS011;64847;45.778;12.802;2024-02-16T03:28:18;13.87;;;12.57;;
76115;SDS011;64847;45.778;12.802;2024-02-16T03:30:45;15.23;;;13.73;;
76115;SDS011;64847;45.778;12.802;2024-02-16T03:33:11;13.97;;;12.73;;
76115;SDS011;64847;45.778;12.802;2024-02-16T03:35:37;16.17;;;14.57;;
76115;SDS011;64847;45.778;12.802;2024-02-16T03:38:03;14.37;;;13.10;;
76115;SDS011;64847;45.778;12.802;2024-02-16T03:40:29;14.23;;;13.00;;
76115;SDS011;64847;45.778;12.802;2024-02-16T03:42:55;14.00;;;12.70;;
76115;SDS011;64847;45.778;12.802;2024-02-16T03:45:21;13.87;;;12.63;;
76115;SDS011;64847;45.778;12.802;2024-02-16T03:47:48;16.47;;;14.83;;
76115;SDS011;64847;45.778;12.802;2024-02-16T03:50:19;16.63;;;15.03;;
76115;SDS011;64847;45.778;12.802;2024-02-16T03:52:45;15.13;;;13.83;;
76115;SDS011;64847;45.778;12.802;2024-02-16T03:55:11;14.67;;;13.40;;
76115;SDS011;64847;45.778;12.802;2024-02-16T03:57:37;15.50;;;14.10;;
76115;SDS011;64847;45.778;12.802;2024-02-16T04:00:03;16.20;;;14.63;;
76115;SDS011;64847;45.778;12.802;2024-02-16T04:02:31;16.40;;;14.90;;
76115;SDS011;64847;45.778;12.802;2024-02-16T04:04:56;15.73;;;14.33;;
76115;SDS011;64847;45.778;12.802;2024-02-16T04:07:22;15.60;;;14.20;;
76115;SDS011;64847;45.778;12.802;2024-02-16T04:09:47;15.80;;;14.30;;
76115;SDS011;64847;45.778;12.802;2024-02-16T04:12:12;16.13;;;14.70;;
76115;SDS011;64847;45.778;12.802;2024-02-16T04:14:38;17.20;;;15.70;;
76115;SDS011;64847;45.778;12.802;2024-02-16T04:17:03;17.20;;;15.60;;
76115;SDS011;64847;45.778;12.802;2024-02-16T04:19:29;17.67;;;16.07;;
76115;SDS011;64847;45.778;12.802;2024-02-16T04:21:54;17.17;;;15.67;;
76115;SDS011;64847;45.778;12.802;2024-02-16T04:24:20;18.57;;;16.77;;
76115;SDS011;64847;45.778;12.802;2024-02-16T04:26:46;17.53;;;15.93;;
76115;SDS011;64847;45.778;12.802;2024-02-16T04:29:11;16.40;;;15.00;;
76115;SDS011;64847;45.778;12.802;2024-02-16T04:31:40;17.10;;;15.60;;
76115;SDS011;64847;45.778;12.802;2024-02-16T04:34:11;17.80;;;16.20;;
76115;SDS011;64847;45.778;12.802;2024-02-16T04:36:37;16.33;;;14.93;;
76115;SDS011;64847;45.778;12.802;2024-02-16T04:39:02;15.53;;;14.20;;
76115;SDS011;64847;45.778;12.802;2024-02-16T04:41:28;16.00;;;14.60;;
76115;SDS011;64847;45.778;12.802;2024-02-16T04:43:53;15.47;;;14.13;;
76115;SDS011;64847;45.778;12.802;2024-02-16T04:46:19;14.93;;;13.60;;
76115;SDS011;64847;45.778;12.802;2024-02-16T04:48:44;16.97;;;15.47;;
76115;SDS011;64847;45.778;12.802;2024-02-16T04:51:10;15.93;;;14.53;;
76115;SDS011;64847;45.778;12.802;2024-02-16T04:53:36;15.23;;;13.93;;
76115;SDS011;64847;45.778;12.802;2024-02-16T04:56:01;15.07;;;13.77;;
76115;SDS011;64847;45.778;12.802;2024-02-16T04:58:27;14.00;;;12.80;;
76115;SDS011;64847;45.778;12.802;2024-02-16T05:00:53;14.27;;;13.07;;
76115;SDS011;64847;45.778;12.802;2024-02-16T05:03:18;15.37;;;14.13;;
76115;SDS011;64847;45.778;12.802;2024-02-16T05:05:43;13.03;;;11.97;;
76115;SDS011;64847;45.778;12.802;2024-02-16T05:08:09;13.60;;;12.50;;
76115;SDS011;64847;45.778;12.802;2024-02-16T05:10:34;12.37;;;11.33;;
76115;SDS011;64847;45.778;12.802;2024-02-16T05:13:00;12.27;;;11.23;;
76115;SDS011;64847;45.778;12.802;2024-02-16T05:15:25;11.90;;;11.00;;
76115;SDS011;64847;45.778;12.802;2024-02-16T05:17:51;11.67;;;10.77;;
76115;SDS011;64847;45.778;12.802;2024-02-16T05:20:16;12.13;;;11.13;;
76115;SDS011;64847;45.778;12.802;2024-02-16T05:22:44;11.60;;;10.70;;
76115;SDS011;64847;45.778;12.802;2024-02-16T05:25:14;12.00;;;11.00;;
76115;SDS011;64847;45.778;12.802;2024-02-16T05:27:43;12.03;;;11.13;;
76115;SDS011;64847;45.778;12.802;2024-02-16T05:30:09;11.90;;;11.00;;
76115;SDS011;64847;45.778;12.802;2024-02-16T05:32:38;12.00;;;11.07;;
76115;SDS011;64847;45.778;12.802;2024-02-16T05:35:03;12.30;;;11.37;;
76115;SDS011;64847;45.778;12.802;2024-02-16T05:37:36;11.87;;;10.90;;
76115;SDS011;64847;45.778;12.802;2024-02-16T05:40:03;12.17;;;11.17;;
76115;SDS011;64847;45.778;12.802;2024-02-16T05:42:44;10.87;;;10.00;;
76115;SDS011;64847;45.778;12.802;2024-02-16T05:45:11;10.30;;;9.50;;
76115;SDS011;64847;45.778;12.802;2024-02-16T05:47:36;11.23;;;10.40;;
76115;SDS011;64847;45.778;12.802;2024-02-16T05:50:03;11.83;;;10.93;;
76115;SDS011;64847;45.778;12.802;2024-02-16T05:52:30;10.53;;;9.73;;
76115;SDS011;64847;45.778;12.802;2024-02-16T05:54:55;10.83;;;9.93;;
76115;SDS011;64847;45.778;12.802;2024-02-16T05:57:21;11.20;;;10.30;;
76115;SDS011;64847;45.778;12.802;2024-02-16T05:59:46;11.97;;;11.07;;
76115;SDS011;64847;45.778;12.802;2024-02-16T06:02:12;11.13;;;10.23;;
76115;SDS011;64847;45.778;12.802;2024-02-16T06:04:39;11.37;;;10.47;;
76115;SDS011;64847;45.778;12.802;2024-02-16T06:07:04;11.60;;;10.70;;
76115;SDS011;64847;45.778;12.802;2024-02-16T06:09:30;11.53;;;10.63;;
76115;SDS011;64847;45.778;12.802;2024-02-16T06:12:00;11.60;;;10.70;;
76115;SDS011;64847;45.778;12.802;2024-02-16T06:14:28;12.53;;;11.53;;
76115;SDS011;64847;45.778;12.802;2024-02-16T06:16:54;11.83;;;10.83;;
76115;SDS011;64847;45.778;12.802;2024-02-16T06:19:20;12.43;;;11.43;;
76115;SDS011;64847;45.778;12.802;2024-02-16T06:21:46;11.63;;;10.73;;
76115;SDS011;64847;45.778;12.802;2024-02-16T06:24:11;12.73;;;11.70;;
76115;SDS011;64847;45.778;12.802;2024-02-16T06:26:37;12.93;;;11.83;;
76115;SDS011;64847;45.778;12.802;2024-02-16T06:29:02;13.57;;;12.47;;
76115;SDS011;64847;45.778;12.802;2024-02-16T06:31:27;13.00;;;11.90;;
76115;SDS011;64847;45.778;12.802;2024-02-16T06:33:53;12.97;;;11.87;;
76115;SDS011;64847;45.778;12.802;2024-02-16T06:36:18;12.57;;;11.57;;
76115;SDS011;64847;45.778;12.802;2024-02-16T06:38:44;13.60;;;12.40;;
76115;SDS011;64847;45.778;12.802;2024-02-16T06:41:09;14.17;;;12.97;;
76115;SDS011;64847;45.778;12.802;2024-02-16T06:43:35;13.07;;;11.97;;
76115;SDS011;64847;45.778;12.802;2024-02-16T06:46:00;14.17;;;12.97;;
76115;SDS011;64847;45.778;12.802;2024-02-16T06:48:26;14.23;;;13.03;;
76115;SDS011;64847;45.778;12.802;2024-02-16T06:50:51;14.27;;;13.07;;
76115;SDS011;64847;45.778;12.802;2024-02-16T06:53:17;14.83;;;13.43;;
76115;SDS011;64847;45.778;12.802;2024-02-16T06:55:42;13.87;;;12.67;;
76115;SDS011;64847;45.778;12.802;2024-02-16T06:58:07;13.90;;;12.70;;
76115;SDS011;64847;45.778;12.802;2024-02-16T07:00:33;14.57;;;13.27;;
76115;SDS011;64847;45.778;12.802;2024-02-16T07:03:00;14.37;;;13.07;;
76115;SDS011;64847;45.778;12.802;2024-02-16T07:05:26;13.63;;;12.43;;
76115;SDS011;64847;45.778;12.802;2024-02-16T07:07:53;14.23;;;13.03;;
76115;SDS011;64847;45.778;12.802;2024-02-16T07:10:19;13.87;;;12.67;;
76115;SDS011;64847;45.778;12.802;2024-02-16T07:12:44;13.87;;;12.57;;
76115;SDS011;64847;45.778;12.802;2024-02-16T07:15:10;13.90;;;12.73;;
76115;SDS011;64847;45.778;12.802;2024-02-16T07:17:37;15.37;;;14.00;;
76115;SDS011;64847;45.778;12.802;2024-02-16T07:20:03;13.80;;;12.60;;
76115;SDS011;64847;45.778;12.802;2024-02-16T07:22:29;14.67;;;13.40;;
76115;SDS011;64847;45.778;12.802;2024-02-16T07:24:55;14.50;;;13.27;;
76115;SDS011;64847;45.778;12.802;2024-02-16T07:27:21;13.63;;;12.43;;
76115;SDS011;64847;45.778;12.802;2024-02-16T07:29:46;12.97;;;11.87;;
76115;SDS011;64847;45.778;12.802;2024-02-16T07:32:12;13.80;;;12.60;;
76115;SDS011;64847;45.778;12.802;2024-02-16T07:34:37;12.40;;;11.40;;
76115;SDS011;64847;45.778;12.802;2024-02-16T07:37:03;12.87;;;11.77;;
76115;SDS011;64847;45.778;12.802;2024-02-16T07:39:29;13.23;;;12.13;;
76115;SDS011;64847;45.778;12.802;2024-02-16T07:41:55;12.57;;;11.57;;
76115;SDS011;64847;45.778;12.802;2024-02-16T07:44:20;13.23;;;12.07;;
76115;SDS011;64847;45.778;12.802;2024-02-16T07:46:46;12.73;;;11.73;;
76115;SDS011;64847;45.778;12.802;2024-02-16T07:49:12;14.27;;;13.07;;
76115;SDS011;64847;45.778;12.802;2024-02-16T07:51:39;13.50;;;12.40;;
76115;SDS011;64847;45.778;12.802;2024-02-16T07:54:05;14.33;;;13.13;;
76115;SDS011;64847;45.778;12.802;2024-02-16T07:56:31;15.07;;;13.67;;
76115;SDS011;64847;45.778;12.802;2024-02-16T07:58:57;14.40;;;13.10;;
76115;SDS011;64847;45.778;12.802;2024-02-16T08:01:22;13.93;;;12.73;;
76115;SDS011;64847;45.778;12.802;2024-02-16T08:03:47;14.03;;;12.83;;
76115;SDS011;64847;45.778;12.802;2024-02-16T08:06:13;13.90;;;12.70;;
76115;SDS011;64847;45.778;12.802;2024-02-16T08:08:39;13.80;;;12.60;;
76115;SDS011;64847;45.778;12.802;2024-02-16T08:11:04;13.00;;;11.80;;
76115;SDS011;64847;45.778;12.802;2024-02-16T08:13:30;12.70;;;11.60;;
76115;SDS011;64847;45.778;12.802;2024-02-16T08:15:55;12.87;;;11.77;;
76115;SDS011;64847;45.778;12.802;2024-02-16T08:18:21;12.67;;;11.63;;
76115;SDS011;64847;45.778;12.802;2024-02-16T08:20:47;13.83;;;12.73;;
76115;SDS011;64847;45.778;12.802;2024-02-16T08:23:12;12.87;;;11.77;;
76115;SDS011;64847;45.778;12.802;2024-02-16T08:25:38;13.00;;;11.90;;
76115;SDS011;64847;45.778;12.802;2024-02-16T08:28:03;12.87;;;11.87;;
76115;SDS011;64847;45.778;12.802;2024-02-16T08:30:30;14.10;;;12.90;;
76115;SDS011;64847;45.778;12.802;2024-02-16T08:32:55;12.33;;;11.33;;
76115;SDS011;64847;45.778;12.802;2024-02-16T08:35:21;12.60;;;11.50;;
76115;SDS011;64847;45.778;12.802;2024-02-16T08:37:46;13.40;;;12.30;;
76115;SDS011;64847;45.778;12.802;2024-02-16T08:40:12;14.13;;;12.73;;
76115;SDS011;64847;45.778;12.802;2024-02-16T08:42:40;14.47;;;13.27;;
76115;SDS011;64847;45.778;12.802;2024-02-16T08:45:07;14.60;;;13.33;;
76115;SDS011;64847;45.778;12.802;2024-02-16T08:47:33;14.90;;;13.67;;
76115;SDS011;64847;45.778;12.802;2024-02-16T08:49:58;14.20;;;13.03;;
76115;SDS011;64847;45.778;12.802;2024-02-16T08:52:24;14.27;;;13.07;;
76115;SDS011;64847;45.778;12.802;2024-02-16T08:54:49;14.00;;;12.77;;
76115;SDS011;64847;45.778;12.802;2024-02-16T08:57:15;13.80;;;12.60;;
76115;SDS011;64847;45.778;12.802;2024-02-16T08:59:40;20.03;;;18.43;;
76115;SDS011;64847;45.778;12.802;2024-02-16T09:02:06;16.50;;;15.10;;
76115;SDS011;64847;45.778;12.802;2024-02-16T09:04:31;15.63;;;14.30;;
76115;SDS011;64847;45.778;12.802;2024-02-16T09:06:57;14.90;;;13.50;;
76115;SDS011;64847;45.778;12.802;2024-02-16T09:09:22;14.67;;;13.30;;
76115;SDS011;64847;45.778;12.802;2024-02-16T09:11:48;13.73;;;12.53;;
76115;SDS011;64847;45.778;12.802;2024-02-16T09:14:13;14.47;;;13.27;;
76115;SDS011;64847;45.778;12.802;2024-02-16T09:16:38;12.80;;;11.70;;
76115;SDS011;64847;45.778;12.802;2024-02-16T09:19:04;13.53;;;12.40;;
76115;SDS011;64847;45.778;12.802;2024-02-16T09:21:30;13.77;;;12.63;;
76115;SDS011;64847;45.778;12.802;2024-02-16T09:23:55;14.67;;;13.37;;
76115;SDS011;64847;45.778;12.802;2024-02-16T09:26:26;15.27;;;13.97;;
76115;SDS011;64847;45.778;12.802;2024-02-16T09:28:55;15.63;;;14.33;;
76115;SDS011;64847;45.778;12.802;2024-02-16T09:31:21;15.73;;;14.43;;
76115;SDS011;64847;45.778;12.802;2024-02-16T09:33:46;15.47;;;14.07;;
76115;SDS011;64847;45.778;12.802;2024-02-16T09:36:12;15.80;;;14.33;;
76115;SDS011;64847;45.778;12.802;2024-02-16T09:38:37;16.13;;;14.73;;
76115;SDS011;64847;45.778;12.802;2024-02-16T09:41:02;14.33;;;13.20;;
76115;SDS011;64847;45.778;12.802;2024-02-16T09:43:29;14.63;;;13.33;;
76115;SDS011;64847;45.778;12.802;2024-02-16T09:45:55;13.80;;;12.60;;
76115;SDS011;64847;45.778;12.802;2024-02-16T09:48:22;15.13;;;13.83;;
76115;SDS011;64847;45.778;12.802;2024-02-16T09:50:50;14.87;;;13.57;;
76115;SDS011;64847;45.778;12.802;2024-02-16T09:53:16;14.00;;;12.80;;
76115;SDS011;64847;45.778;12.802;2024-02-16T09:55:42;15.47;;;14.07;;
76115;SDS011;64847;45.778;12.802;2024-02-16T09:58:08;15.90;;;14.50;;
76115;SDS011;64847;45.778;12.802;2024-02-16T10:00:33;15.60;;;14.10;;
76115;SDS011;64847;45.778;12.802;2024-02-16T10:02:59;15.63;;;14.23;;
76115;SDS011;64847;45.778;12.802;2024-02-16T10:05:24;15.57;;;14.17;;
76115;SDS011;64847;45.778;12.802;2024-02-16T10:07:50;14.83;;;13.57;;
76115;SDS011;64847;45.778;12.802;2024-02-16T10:10:25;15.23;;;13.93;;
76115;SDS011;64847;45.778;12.802;2024-02-16T10:13:02;15.57;;;14.17;;
76115;SDS011;64847;45.778;12.802;2024-02-16T10:15:29;15.63;;;14.13;;
76115;SDS011;64847;45.778;12.802;2024-02-16T10:18:01;14.63;;;13.47;;
76115;SDS011;64847;45.778;12.802;2024-02-16T10:20:28;15.73;;;14.23;;
76115;SDS011;64847;45.778;12.802;2024-02-16T10:25:32;16.10;;;14.60;;
76115;SDS011;64847;45.778;12.802;2024-02-16T10:27:58;14.90;;;13.70;;
76115;SDS011;64847;45.778;12.802;2024-02-16T10:30:30;15.63;;;14.23;;
76115;SDS011;64847;45.778;12.802;2024-02-16T10:32:56;16.10;;;14.60;;
76115;SDS011;64847;45.778;12.802;2024-02-16T10:35:24;15.50;;;14.20;;
76115;SDS011;64847;45.778;12.802;2024-02-16T10:37:50;16.67;;;15.17;;
76115;SDS011;64847;45.778;12.802;2024-02-16T10:40:15;16.53;;;15.03;;
76115;SDS011;64847;45.778;12.802;2024-02-16T10:42:45;16.80;;;15.37;;
76115;SDS011;64847;45.778;12.802;2024-02-16T10:45:11;17.90;;;16.30;;
76115;SDS011;64847;45.778;12.802;2024-02-16T10:47:40;16.00;;;14.57;;
76115;SDS011;64847;45.778;12.802;2024-02-16T10:50:06;17.23;;;15.73;;
76115;SDS011;64847;45.778;12.802;2024-02-16T10:52:35;21.07;;;19.13;;
76115;SDS011;64847;45.778;12.802;2024-02-16T10:55:03;20.43;;;18.57;;
76115;SDS011;64847;45.778;12.802;2024-02-16T10:57:30;19.57;;;17.87;;
76115;SDS011;64847;45.778;12.802;2024-02-16T10:59:56;17.70;;;16.13;;
76115;SDS011;64847;45.778;12.802;2024-02-16T11:02:24;18.47;;;16.77;;
76115;SDS011;64847;45.778;12.802;2024-02-16T11:04:51;17.53;;;16.00;;
76115;SDS011;64847;45.778;12.802;2024-02-16T11:07:17;16.50;;;15.10;;
76115;SDS011;64847;45.778;12.802;2024-02-16T11:09:44;16.50;;;15.10;;
76115;SDS011;64847;45.778;12.802;2024-02-16T11:12:11;16.20;;;14.70;;
76115;SDS011;64847;45.778;12.802;2024-02-16T11:14:42;15.75;;;14.25;;
76115;SDS011;64847;45.778;12.802;2024-02-16T11:19:35;14.57;;;13.38;;
76115;SDS011;64847;45.778;12.802;2024-02-16T11:22:19;15.73;;;14.32;;
76115;SDS011;64847;45.778;12.802;2024-02-16T11:24:46;13.60;;;12.50;;
76115;SDS011;64847;45.778;12.802;2024-02-16T11:27:15;13.40;;;12.20;;
76115;SDS011;64847;45.778;12.802;2024-02-16T11:29:44;12.45;;;11.48;;
76115;SDS011;64847;45.778;12.802;2024-02-16T11:32:09;11.75;;;10.77;;
76115;SDS011;64847;45.778;12.802;2024-02-16T11:34:35;11.38;;;10.48;;
76115;SDS011;64847;45.778;12.802;2024-02-16T11:37:03;11.13;;;10.23;;
76115;SDS011;64847;45.778;12.802;2024-02-16T11:39:30;11.75;;;10.75;;
76115;SDS011;64847;45.778;12.802;2024-02-16T11:42:03;13.80;;;11.38;;
76115;SDS011;64847;45.778;12.802;2024-02-16T11:44:33;9.70;;;8.90;;
76115;SDS011;64847;45.778;12.802;2024-02-16T11:47:00;9.38;;;8.68;;
76115;SDS011;64847;45.778;12.802;2024-02-16T11:49:28;8.80;;;8.15;;
76115;SDS011;64847;45.778;12.802;2024-02-16T11:51:54;10.45;;;9.65;;
76115;SDS011;64847;45.778;12.802;2024-02-16T11:54:21;9.68;;;8.88;;
76115;SDS011;64847;45.778;12.802;2024-02-16T11:56:47;10.38;;;9.48;;
76115;SDS011;64847;45.778;12.802;2024-02-16T11:59:16;9.90;;;9.13;;
76115;SDS011;64847;45.778;12.802;2024-02-16T12:02:16;10.52;;;9.52;;
76115;SDS011;64847;45.778;12.802;2024-02-16T12:04:41;9.70;;;8.88;;
76115;SDS011;64847;45.778;12.802;2024-02-16T12:07:07;9.98;;;9.05;;
76115;SDS011;64847;45.778;12.802;2024-02-16T12:09:33;8.85;;;8.15;;
76115;SDS011;64847;45.778;12.802;2024-02-16T12:11:59;8.52;;;7.93;;
76115;SDS011;64847;45.778;12.802;2024-02-16T12:14:25;9.27;;;8.48;;
76115;SDS011;64847;45.778;12.802;2024-02-16T12:16:59;8.75;;;8.15;;
76115;SDS011;64847;45.778;12.802;2024-02-16T12:19:25;7.85;;;7.25;;
76115;SDS011;64847;45.778;12.802;2024-02-16T12:21:51;8.75;;;8.02;;
76115;SDS011;64847;45.778;12.802;2024-02-16T12:24:17;8.75;;;7.93;;
76115;SDS011;64847;45.778;12.802;2024-02-16T12:26:43;9.50;;;8.70;;
76115;SDS011;64847;45.778;12.802;2024-02-16T12:29:08;8.02;;;7.40;;
76115;SDS011;64847;45.778;12.802;2024-02-16T12:31:37;9.45;;;8.75;;
76115;SDS011;64847;45.778;12.802;2024-02-16T12:34:06;8.95;;;8.25;;
76115;SDS011;64847;45.778;12.802;2024-02-16T12:36:33;8.45;;;7.72;;
76115;SDS011;64847;45.778;12.802;2024-02-16T12:38:59;8.88;;;8.15;;
76115;SDS011;64847;45.778;12.802;2024-02-16T12:41:25;8.48;;;7.78;;
76115;SDS011;64847;45.778;12.802;2024-02-16T12:43:50;8.27;;;7.65;;
76115;SDS011;64847;45.778;12.802;2024-02-16T12:46:16;7.75;;;7.18;;
76115;SDS011;64847;45.778;12.802;2024-02-16T12:48:41;9.60;;;8.80;;
76115;SDS011;64847;45.778;12.802;2024-02-16T12:51:07;9.90;;;9.00;;
76115;SDS011;64847;45.778;12.802;2024-02-16T12:53:32;8.93;;;8.13;;
76115;SDS011;64847;45.778;12.802;2024-02-16T12:56:05;8.82;;;8.18;;
76115;SDS011;64847;45.778;12.802;2024-02-16T12:58:35;10.50;;;9.70;;
76115;SDS011;64847;45.778;12.802;2024-02-16T13:01:01;12.45;;;11.45;;
76115;SDS011;64847;45.778;12.802;2024-02-16T13:03:34;11.63;;;10.73;;
76115;SDS011;64847;45.778;12.802;2024-02-16T13:06:00;13.73;;;12.63;;
76115;SDS011;64847;45.778;12.802;2024-02-16T13:08:26;13.52;;;12.35;;
76115;SDS011;64847;45.778;12.802;2024-02-16T13:10:52;16.45;;;15.07;;
76115;SDS011;64847;45.778;12.802;2024-02-16T13:13:17;17.98;;;16.30;;
76115;SDS011;64847;45.778;12.802;2024-02-16T13:15:43;21.13;;;19.25;;
76115;SDS011;64847;45.778;12.802;2024-02-16T13:18:08;19.85;;;18.05;;
76115;SDS011;64847;45.778;12.802;2024-02-16T13:20:34;22.27;;;20.17;;
76115;SDS011;64847;45.778;12.802;2024-02-16T13:23:00;20.30;;;18.30;;
76115;SDS011;64847;45.778;12.802;2024-02-16T13:25:26;19.85;;;17.98;;
76115;SDS011;64847;45.778;12.802;2024-02-16T13:27:51;18.35;;;16.58;;
76115;SDS011;64847;45.778;12.802;2024-02-16T13:30:17;19.58;;;17.65;;
76115;SDS011;64847;45.778;12.802;2024-02-16T13:32:42;20.15;;;18.05;;
76115;SDS011;64847;45.778;12.802;2024-02-16T13:35:08;19.05;;;17.27;;
76115;SDS011;64847;45.778;12.802;2024-02-16T13:37:33;18.77;;;16.88;;
76115;SDS011;64847;45.778;12.802;2024-02-16T13:39:58;15.98;;;14.48;;
76115;SDS011;64847;45.778;12.802;2024-02-16T13:42:24;15.85;;;14.35;;
76115;SDS011;64847;45.778;12.802;2024-02-16T13:44:51;17.65;;;15.85;;
76115;SDS011;64847;45.778;12.802;2024-02-16T13:47:16;14.00;;;12.60;;
76115;SDS011;64847;45.778;12.802;2024-02-16T13:49:42;17.52;;;15.82;;
76115;SDS011;64847;45.778;12.802;2024-02-16T13:52:07;15.27;;;13.65;;
76115;SDS011;64847;45.778;12.802;2024-02-16T13:54:34;17.42;;;15.82;;
76115;SDS011;64847;45.778;12.802;2024-02-16T13:57:00;14.55;;;13.18;;
76115;SDS011;64847;45.778;12.802;2024-02-16T13:59:26;13.82;;;12.52;;
76115;SDS011;64847;45.778;12.802;2024-02-16T14:01:51;14.60;;;13.20;;
76115;SDS011;64847;45.778;12.802;2024-02-16T14:04:16;15.15;;;13.65;;
76115;SDS011;64847;45.778;12.802;2024-02-16T14:06:43;15.43;;;13.82;;
76115;SDS011;64847;45.778;12.802;2024-02-16T14:09:08;16.80;;;15.18;;
76115;SDS011;64847;45.778;12.802;2024-02-16T14:11:35;16.75;;;15.10;;